AUA29SK LOWW-EDDF
Flight info
| Callsign | AUA29SK |
|---|---|
| Flight time | 1h 1m |
| Altitude | 34000 |
| Route | LUGEM DCT SUBEN T161 DEBHI |
| Aircraft | A320/M-SDE2E3FGHIJ1RWXY/LB1 |
Departure
| Time | 2026-04-18 09:33 |
|---|---|
| Airport | Vienna International Airport (LOWW) |
Arrival
| Time | 2026-04-18 10:34 |
|---|---|
| Airport | Frankfurt Main Airport (EDDF) |
| Time | Latitude | Longitude | Altitude | Speed | Heading |
|---|---|---|---|---|---|
| 2026-04-18 09:05 | 48.11745 | 16.56682 | 617 ft | 0 kts | 25° |
| 2026-04-18 09:23 | 48.11744 | 16.56682 | 609 ft | 2 kts | 25° |
| 2026-04-18 09:23 | 48.11721 | 16.56665 | 624 ft | 4 kts | 28° |
| 2026-04-18 09:23 | 48.11698 | 16.56645 | 620 ft | 4 kts | 38° |
| 2026-04-18 09:23 | 48.11682 | 16.56618 | 624 ft | 4 kts | 81° |
| 2026-04-18 09:24 | 48.11682 | 16.56603 | 620 ft | 0 kts | 116° |
| 2026-04-18 09:26 | 48.11665 | 16.56653 | 615 ft | 15 kts | 116° |
| 2026-04-18 09:26 | 48.11616 | 16.56808 | 615 ft | 17 kts | 116° |
| 2026-04-18 09:26 | 48.11562 | 16.56969 | 614 ft | 18 kts | 116° |
| 2026-04-18 09:26 | 48.11508 | 16.57136 | 613 ft | 18 kts | 116° |
| 2026-04-18 09:27 | 48.11459 | 16.57290 | 616 ft | 15 kts | 116° |
| 2026-04-18 09:27 | 48.11402 | 16.57391 | 612 ft | 12 kts | 178° |
| 2026-04-18 09:27 | 48.11327 | 16.57342 | 620 ft | 11 kts | 206° |
| 2026-04-18 09:27 | 48.11257 | 16.57291 | 617 ft | 11 kts | 206° |
| 2026-04-18 09:28 | 48.11190 | 16.57243 | 609 ft | 10 kts | 206° |
| 2026-04-18 09:28 | 48.11153 | 16.57216 | 612 ft | 0 kts | 205° |
| 2026-04-18 09:31 | 48.11112 | 16.57187 | 616 ft | 17 kts | 206° |
| 2026-04-18 09:31 | 48.11063 | 16.57074 | 611 ft | 13 kts | 293° |
| 2026-04-18 09:31 | 48.11073 | 16.57045 | 618 ft | 0 kts | 296° |
| 2026-04-18 09:32 | 48.11115 | 16.56918 | 609 ft | 47 kts | 297° |
| 2026-04-18 09:32 | 48.11372 | 16.56127 | 615 ft | 119 kts | 296° |
| 2026-04-18 09:33 | 48.11817 | 16.54759 | 643 ft | 169 kts | 296° |
| 2026-04-18 09:33 | 48.12149 | 16.53060 | 1338 ft | 174 kts | 271° |
| 2026-04-18 09:33 | 48.11849 | 16.51282 | 2128 ft | 183 kts | 258° |
| 2026-04-18 09:33 | 48.11589 | 16.49312 | 2526 ft | 204 kts | 265° |
| 2026-04-18 09:34 | 48.11372 | 16.47100 | 2980 ft | 224 kts | 263° |
| 2026-04-18 09:34 | 48.11051 | 16.44706 | 3588 ft | 242 kts | 261° |
| 2026-04-18 09:34 | 48.10667 | 16.42243 | 4596 ft | 244 kts | 260° |
| 2026-04-18 09:34 | 48.10254 | 16.39761 | 5522 ft | 248 kts | 259° |
| 2026-04-18 09:35 | 48.09933 | 16.37232 | 6482 ft | 248 kts | 273° |
| 2026-04-18 09:35 | 48.10156 | 16.34663 | 7248 ft | 257 kts | 283° |
| 2026-04-18 09:35 | 48.10498 | 16.31951 | 7867 ft | 271 kts | 284° |
| 2026-04-18 09:35 | 48.10856 | 16.29146 | 8734 ft | 277 kts | 283° |
| 2026-04-18 09:36 | 48.11220 | 16.26290 | 9637 ft | 282 kts | 283° |
| 2026-04-18 09:36 | 48.11589 | 16.23369 | 10370 ft | 294 kts | 283° |
| 2026-04-18 09:36 | 48.11978 | 16.20283 | 10690 ft | 317 kts | 283° |
| 2026-04-18 09:36 | 48.12391 | 16.16968 | 11284 ft | 329 kts | 283° |
| 2026-04-18 09:37 | 48.12809 | 16.13574 | 12071 ft | 334 kts | 282° |
| 2026-04-18 09:37 | 48.13230 | 16.10132 | 12876 ft | 339 kts | 282° |
| 2026-04-18 09:37 | 48.13655 | 16.06639 | 13674 ft | 343 kts | 282° |
| 2026-04-18 09:37 | 48.14085 | 16.03102 | 14419 ft | 347 kts | 282° |
| 2026-04-18 09:38 | 48.14519 | 15.99526 | 15133 ft | 351 kts | 283° |
| 2026-04-18 09:38 | 48.14953 | 15.95924 | 15889 ft | 352 kts | 283° |
| 2026-04-18 09:38 | 48.15389 | 15.92306 | 16632 ft | 355 kts | 283° |
| 2026-04-18 09:38 | 48.15831 | 15.88661 | 17372 ft | 357 kts | 283° |
| 2026-04-18 09:39 | 48.16276 | 15.84987 | 18102 ft | 360 kts | 283° |
| 2026-04-18 09:39 | 48.16722 | 15.81281 | 18773 ft | 363 kts | 283° |
| 2026-04-18 09:39 | 48.17170 | 15.77545 | 19389 ft | 366 kts | 283° |
| 2026-04-18 09:39 | 48.17620 | 15.73780 | 20004 ft | 368 kts | 283° |
| 2026-04-18 09:40 | 48.18071 | 15.69991 | 20621 ft | 371 kts | 283° |
| 2026-04-18 09:40 | 48.18525 | 15.66169 | 21238 ft | 374 kts | 283° |
| 2026-04-18 09:40 | 48.18980 | 15.62317 | 21851 ft | 377 kts | 283° |
| 2026-04-18 09:40 | 48.19437 | 15.58433 | 22451 ft | 380 kts | 283° |
| 2026-04-18 09:41 | 48.19898 | 15.54517 | 23024 ft | 383 kts | 283° |
| 2026-04-18 09:41 | 48.20364 | 15.50563 | 23600 ft | 387 kts | 283° |
| 2026-04-18 09:41 | 48.20832 | 15.46574 | 24103 ft | 390 kts | 283° |
| 2026-04-18 09:41 | 48.21301 | 15.42559 | 24577 ft | 393 kts | 283° |
| 2026-04-18 09:42 | 48.21766 | 15.38569 | 25043 ft | 395 kts | 283° |
| 2026-04-18 09:42 | 48.22237 | 15.34503 | 25506 ft | 397 kts | 283° |
| 2026-04-18 09:42 | 48.22709 | 15.30413 | 25966 ft | 399 kts | 283° |
| 2026-04-18 09:42 | 48.23180 | 15.26300 | 26414 ft | 401 kts | 283° |
| 2026-04-18 09:43 | 48.23653 | 15.22167 | 26840 ft | 403 kts | 283° |
| 2026-04-18 09:43 | 48.24130 | 15.18007 | 27261 ft | 406 kts | 283° |
| 2026-04-18 09:43 | 48.24612 | 15.13825 | 27665 ft | 408 kts | 283° |
| 2026-04-18 09:43 | 48.25093 | 15.09628 | 28090 ft | 410 kts | 283° |
| 2026-04-18 09:44 | 48.25573 | 15.05403 | 28499 ft | 412 kts | 283° |
| 2026-04-18 09:44 | 48.26052 | 15.01154 | 28902 ft | 414 kts | 283° |
| 2026-04-18 09:44 | 48.26533 | 14.96883 | 29310 ft | 416 kts | 283° |
| 2026-04-18 09:44 | 48.27011 | 14.92587 | 29668 ft | 418 kts | 283° |
| 2026-04-18 09:45 | 48.27490 | 14.88272 | 30024 ft | 421 kts | 283° |
| 2026-04-18 09:45 | 48.27972 | 14.83931 | 30369 ft | 422 kts | 283° |
| 2026-04-18 09:45 | 48.28455 | 14.79572 | 30672 ft | 424 kts | 283° |
| 2026-04-18 09:45 | 48.28939 | 14.75197 | 30968 ft | 426 kts | 283° |
| 2026-04-18 09:46 | 48.29424 | 14.70805 | 31250 ft | 427 kts | 282° |
| 2026-04-18 09:46 | 48.29909 | 14.66404 | 31554 ft | 428 kts | 282° |
| 2026-04-18 09:46 | 48.30393 | 14.61990 | 31847 ft | 429 kts | 282° |
| 2026-04-18 09:46 | 48.30876 | 14.57574 | 32183 ft | 428 kts | 282° |
| 2026-04-18 09:47 | 48.31353 | 14.53166 | 32574 ft | 427 kts | 282° |
| 2026-04-18 09:47 | 48.31818 | 14.48829 | 32966 ft | 425 kts | 282° |
| 2026-04-18 09:47 | 48.32286 | 14.44454 | 33354 ft | 424 kts | 282° |
| 2026-04-18 09:47 | 48.32752 | 14.40086 | 33730 ft | 423 kts | 282° |
| 2026-04-18 09:48 | 48.33218 | 14.35729 | 34106 ft | 422 kts | 282° |
| 2026-04-18 09:48 | 48.33683 | 14.31387 | 34192 ft | 417 kts | 282° |
| 2026-04-18 09:48 | 48.34581 | 14.22938 | 34215 ft | 405 kts | 281° |
| 2026-04-18 09:49 | 48.35467 | 14.14583 | 34220 ft | 404 kts | 281° |
| 2026-04-18 09:49 | 48.36338 | 14.06244 | 34197 ft | 404 kts | 281° |
| 2026-04-18 09:50 | 48.37193 | 13.97899 | 34203 ft | 404 kts | 281° |
| 2026-04-18 09:50 | 48.38050 | 13.89551 | 34202 ft | 404 kts | 281° |
| 2026-04-18 09:51 | 48.38905 | 13.81215 | 34197 ft | 403 kts | 281° |
| 2026-04-18 09:51 | 48.39754 | 13.72878 | 34200 ft | 403 kts | 281° |
| 2026-04-18 09:52 | 48.40595 | 13.64550 | 34205 ft | 403 kts | 281° |
| 2026-04-18 09:52 | 48.41431 | 13.56219 | 34201 ft | 402 kts | 280° |
| 2026-04-18 09:53 | 48.42257 | 13.47897 | 34198 ft | 402 kts | 280° |
| 2026-04-18 09:53 | 48.43071 | 13.39568 | 34189 ft | 402 kts | 279° |
| 2026-04-18 09:54 | 48.44427 | 13.31459 | 34192 ft | 400 kts | 294° |
| 2026-04-18 09:54 | 48.46925 | 13.24041 | 34187 ft | 400 kts | 297° |
| 2026-04-18 09:55 | 48.49454 | 13.16579 | 34192 ft | 400 kts | 297° |
| 2026-04-18 09:55 | 48.51975 | 13.09102 | 34191 ft | 400 kts | 297° |
| 2026-04-18 09:56 | 48.54498 | 13.01609 | 34179 ft | 401 kts | 297° |
| 2026-04-18 09:56 | 48.57025 | 12.94092 | 34181 ft | 402 kts | 296° |
| 2026-04-18 09:57 | 48.59547 | 12.86554 | 34193 ft | 402 kts | 296° |
| 2026-04-18 09:57 | 48.62068 | 12.78998 | 34193 ft | 403 kts | 296° |
| 2026-04-18 09:58 | 48.64592 | 12.71437 | 34194 ft | 403 kts | 296° |
| 2026-04-18 09:58 | 48.67111 | 12.63867 | 34193 ft | 403 kts | 296° |
| 2026-04-18 09:59 | 48.69617 | 12.56279 | 34205 ft | 403 kts | 296° |
| 2026-04-18 10:00 | 48.73365 | 12.44880 | 34201 ft | 403 kts | 296° |
| 2026-04-18 10:00 | 48.75860 | 12.37292 | 34193 ft | 402 kts | 296° |
| 2026-04-18 10:01 | 48.78351 | 12.29701 | 34181 ft | 402 kts | 295° |
| 2026-04-18 10:01 | 48.80831 | 12.22107 | 34185 ft | 402 kts | 295° |
| 2026-04-18 10:02 | 48.83304 | 12.14486 | 34185 ft | 403 kts | 295° |
| 2026-04-18 10:02 | 48.85781 | 12.06860 | 34195 ft | 403 kts | 295° |
| 2026-04-18 10:03 | 48.88255 | 11.99222 | 34193 ft | 403 kts | 295° |
| 2026-04-18 10:03 | 48.90302 | 11.92865 | 34193 ft | 403 kts | 295° |
| 2026-04-18 10:04 | 48.92763 | 11.85215 | 34193 ft | 403 kts | 295° |
| 2026-04-18 10:04 | 48.95219 | 11.77567 | 34192 ft | 403 kts | 295° |
| 2026-04-18 10:05 | 48.97672 | 11.69910 | 34187 ft | 403 kts | 295° |
| 2026-04-18 10:05 | 49.00117 | 11.62241 | 34191 ft | 403 kts | 294° |
| 2026-04-18 10:06 | 49.02557 | 11.54562 | 34190 ft | 403 kts | 294° |
| 2026-04-18 10:06 | 49.04997 | 11.46882 | 34204 ft | 403 kts | 294° |
| 2026-04-18 10:07 | 49.07431 | 11.39191 | 34201 ft | 403 kts | 294° |
| 2026-04-18 10:07 | 49.09835 | 11.31538 | 34191 ft | 403 kts | 294° |
| 2026-04-18 10:08 | 49.12270 | 11.23772 | 34058 ft | 404 kts | 294° |
| 2026-04-18 10:08 | 49.13477 | 11.19920 | 33631 ft | 399 kts | 294° |
| 2026-04-18 10:08 | 49.14652 | 11.16168 | 33123 ft | 395 kts | 294° |
| 2026-04-18 10:08 | 49.15828 | 11.12402 | 32616 ft | 391 kts | 294° |
| 2026-04-18 10:09 | 49.16988 | 11.08672 | 32098 ft | 387 kts | 294° |
| 2026-04-18 10:09 | 49.18137 | 11.04967 | 31611 ft | 384 kts | 294° |
| 2026-04-18 10:09 | 49.19278 | 11.01294 | 31136 ft | 381 kts | 294° |
| 2026-04-18 10:09 | 49.20411 | 10.97652 | 30653 ft | 378 kts | 294° |
| 2026-04-18 10:10 | 49.21538 | 10.94030 | 30159 ft | 376 kts | 294° |
| 2026-04-18 10:10 | 49.22655 | 10.90434 | 29670 ft | 372 kts | 294° |
| 2026-04-18 10:10 | 49.23759 | 10.86877 | 29211 ft | 368 kts | 294° |
| 2026-04-18 10:10 | 49.24845 | 10.83358 | 28751 ft | 364 kts | 294° |
| 2026-04-18 10:11 | 49.25919 | 10.79866 | 28314 ft | 361 kts | 294° |
| 2026-04-18 10:11 | 49.26981 | 10.76410 | 27884 ft | 357 kts | 294° |
| 2026-04-18 10:11 | 49.28031 | 10.72992 | 27470 ft | 353 kts | 294° |
| 2026-04-18 10:11 | 49.29070 | 10.69603 | 27058 ft | 349 kts | 294° |
| 2026-04-18 10:12 | 49.30094 | 10.66249 | 26656 ft | 346 kts | 294° |
| 2026-04-18 10:12 | 49.31105 | 10.62936 | 26259 ft | 342 kts | 294° |
| 2026-04-18 10:12 | 49.32107 | 10.59655 | 25857 ft | 338 kts | 294° |
| 2026-04-18 10:12 | 49.33098 | 10.56403 | 25457 ft | 335 kts | 294° |
| 2026-04-18 10:13 | 49.34079 | 10.53181 | 25058 ft | 332 kts | 294° |
| 2026-04-18 10:13 | 49.35053 | 10.49989 | 24646 ft | 330 kts | 294° |
| 2026-04-18 10:13 | 49.36055 | 10.46838 | 24236 ft | 328 kts | 299° |
| 2026-04-18 10:13 | 49.37320 | 10.43917 | 23870 ft | 336 kts | 304° |
| 2026-04-18 10:14 | 49.38693 | 10.40930 | 23482 ft | 346 kts | 304° |
| 2026-04-18 10:14 | 49.40078 | 10.37899 | 23124 ft | 347 kts | 304° |
| 2026-04-18 10:14 | 49.41461 | 10.34862 | 22769 ft | 346 kts | 304° |
| 2026-04-18 10:14 | 49.42837 | 10.31837 | 22416 ft | 345 kts | 304° |
| 2026-04-18 10:15 | 49.44204 | 10.28828 | 22079 ft | 342 kts | 304° |
| 2026-04-18 10:15 | 49.45562 | 10.25839 | 21732 ft | 340 kts | 304° |
| 2026-04-18 10:15 | 49.46895 | 10.22902 | 21392 ft | 338 kts | 304° |
| 2026-04-18 10:15 | 49.48255 | 10.19903 | 21044 ft | 336 kts | 304° |
| 2026-04-18 10:16 | 49.49590 | 10.16959 | 20704 ft | 334 kts | 304° |
| 2026-04-18 10:16 | 49.50898 | 10.14073 | 20373 ft | 333 kts | 304° |
| 2026-04-18 10:16 | 49.52217 | 10.11160 | 20034 ft | 331 kts | 304° |
| 2026-04-18 10:16 | 49.53528 | 10.08263 | 19703 ft | 329 kts | 304° |
| 2026-04-18 10:17 | 49.54833 | 10.05368 | 19360 ft | 328 kts | 304° |
| 2026-04-18 10:17 | 49.56129 | 10.02491 | 19028 ft | 326 kts | 304° |
| 2026-04-18 10:17 | 49.57422 | 9.99625 | 18695 ft | 325 kts | 304° |
| 2026-04-18 10:17 | 49.58708 | 9.96774 | 18350 ft | 323 kts | 304° |
| 2026-04-18 10:18 | 49.59986 | 9.93937 | 17998 ft | 321 kts | 304° |
| 2026-04-18 10:18 | 49.61257 | 9.91110 | 17671 ft | 319 kts | 303° |
| 2026-04-18 10:18 | 49.62514 | 9.88302 | 17337 ft | 317 kts | 303° |
| 2026-04-18 10:18 | 49.63764 | 9.85510 | 17020 ft | 316 kts | 303° |
| 2026-04-18 10:19 | 49.65011 | 9.82727 | 16699 ft | 314 kts | 303° |
| 2026-04-18 10:19 | 49.66251 | 9.79958 | 16378 ft | 313 kts | 303° |
| 2026-04-18 10:19 | 49.67486 | 9.77195 | 16059 ft | 312 kts | 303° |
| 2026-04-18 10:19 | 49.68716 | 9.74440 | 15741 ft | 311 kts | 303° |
| 2026-04-18 10:20 | 49.69935 | 9.71694 | 15422 ft | 310 kts | 303° |
| 2026-04-18 10:20 | 49.71154 | 9.68943 | 14959 ft | 312 kts | 303° |
| 2026-04-18 10:20 | 49.72378 | 9.66189 | 14607 ft | 309 kts | 303° |
| 2026-04-18 10:20 | 49.73588 | 9.63466 | 14296 ft | 307 kts | 303° |
| 2026-04-18 10:21 | 49.74793 | 9.60758 | 13985 ft | 305 kts | 303° |
| 2026-04-18 10:21 | 49.75993 | 9.58062 | 13652 ft | 304 kts | 303° |
| 2026-04-18 10:21 | 49.77185 | 9.55376 | 13335 ft | 302 kts | 303° |
| 2026-04-18 10:21 | 49.78373 | 9.52693 | 13023 ft | 302 kts | 303° |
| 2026-04-18 10:22 | 49.79554 | 9.50019 | 12722 ft | 301 kts | 303° |
| 2026-04-18 10:22 | 49.80733 | 9.47346 | 12420 ft | 300 kts | 303° |
| 2026-04-18 10:22 | 49.81907 | 9.44676 | 12102 ft | 300 kts | 303° |
| 2026-04-18 10:22 | 49.83081 | 9.42005 | 11803 ft | 300 kts | 303° |
| 2026-04-18 10:23 | 49.84253 | 9.39340 | 11498 ft | 299 kts | 303° |
| 2026-04-18 10:23 | 49.85450 | 9.36700 | 11194 ft | 300 kts | 308° |
| 2026-04-18 10:23 | 49.86950 | 9.34460 | 10870 ft | 301 kts | 321° |
| 2026-04-18 10:23 | 49.88761 | 9.32817 | 10467 ft | 302 kts | 331° |
| 2026-04-18 10:24 | 49.90635 | 9.31344 | 10084 ft | 301 kts | 331° |
| 2026-04-18 10:24 | 49.92481 | 9.29890 | 9841 ft | 294 kts | 331° |
| 2026-04-18 10:24 | 49.94283 | 9.28464 | 9673 ft | 290 kts | 331° |
| 2026-04-18 10:24 | 49.96072 | 9.27041 | 9431 ft | 288 kts | 331° |
| 2026-04-18 10:25 | 49.97854 | 9.25623 | 9136 ft | 287 kts | 331° |
| 2026-04-18 10:25 | 49.99622 | 9.24213 | 8843 ft | 285 kts | 330° |
| 2026-04-18 10:25 | 50.01383 | 9.22804 | 8553 ft | 284 kts | 330° |
| 2026-04-18 10:25 | 50.03139 | 9.21397 | 8269 ft | 283 kts | 330° |
| 2026-04-18 10:26 | 50.04886 | 9.19996 | 7976 ft | 282 kts | 331° |
| 2026-04-18 10:26 | 50.06629 | 9.18604 | 7684 ft | 281 kts | 331° |
| 2026-04-18 10:26 | 50.08371 | 9.17227 | 7385 ft | 281 kts | 331° |
| 2026-04-18 10:26 | 50.10108 | 9.15848 | 7041 ft | 280 kts | 331° |
| 2026-04-18 10:27 | 50.11845 | 9.14477 | 6670 ft | 279 kts | 331° |
| 2026-04-18 10:27 | 50.13573 | 9.13113 | 6354 ft | 275 kts | 330° |
| 2026-04-18 10:27 | 50.15039 | 9.11475 | 6095 ft | 253 kts | 305° |
| 2026-04-18 10:27 | 50.15617 | 9.09082 | 5839 ft | 229 kts | 266° |
| 2026-04-18 10:28 | 50.15325 | 9.06737 | 5664 ft | 217 kts | 250° |
| 2026-04-18 10:28 | 50.14815 | 9.04499 | 5644 ft | 220 kts | 248° |
| 2026-04-18 10:28 | 50.14288 | 9.02267 | 5621 ft | 219 kts | 249° |
| 2026-04-18 10:28 | 50.13764 | 9.00035 | 5589 ft | 219 kts | 249° |
| 2026-04-18 10:29 | 50.13242 | 8.97802 | 5495 ft | 220 kts | 249° |
| 2026-04-18 10:29 | 50.12721 | 8.95575 | 5253 ft | 218 kts | 249° |
| 2026-04-18 10:29 | 50.12202 | 8.93360 | 4975 ft | 217 kts | 249° |
| 2026-04-18 10:29 | 50.11684 | 8.91150 | 4693 ft | 217 kts | 249° |
| 2026-04-18 10:30 | 50.11165 | 8.88939 | 4383 ft | 218 kts | 250° |
| 2026-04-18 10:30 | 50.10647 | 8.86733 | 4104 ft | 216 kts | 250° |
| 2026-04-18 10:30 | 50.10132 | 8.84542 | 3822 ft | 215 kts | 250° |
| 2026-04-18 10:30 | 50.09618 | 8.82360 | 3535 ft | 215 kts | 250° |
| 2026-04-18 10:31 | 50.09101 | 8.80166 | 3257 ft | 218 kts | 251° |
| 2026-04-18 10:31 | 50.08579 | 8.77953 | 2962 ft | 218 kts | 250° |
| 2026-04-18 10:31 | 50.08056 | 8.75740 | 2672 ft | 216 kts | 251° |
| 2026-04-18 10:31 | 50.07550 | 8.73602 | 2384 ft | 204 kts | 251° |
| 2026-04-18 10:32 | 50.07075 | 8.71595 | 2140 ft | 190 kts | 251° |
| 2026-04-18 10:32 | 50.06633 | 8.69731 | 1870 ft | 176 kts | 252° |
| 2026-04-18 10:32 | 50.06235 | 8.68052 | 1662 ft | 156 kts | 251° |
| 2026-04-18 10:32 | 50.05873 | 8.66529 | 1447 ft | 145 kts | 253° |
| 2026-04-18 10:33 | 50.05533 | 8.65092 | 1270 ft | 139 kts | 252° |
| 2026-04-18 10:33 | 50.05200 | 8.63689 | 1087 ft | 137 kts | 252° |
| 2026-04-18 10:33 | 50.04868 | 8.62293 | 905 ft | 138 kts | 253° |
| 2026-04-18 10:33 | 50.04536 | 8.60896 | 724 ft | 138 kts | 252° |
| 2026-04-18 10:34 | 50.04204 | 8.59498 | 537 ft | 138 kts | 251° |
| 2026-04-18 10:34 | 50.03871 | 8.58102 | 381 ft | 136 kts | 252° |
| 2026-04-18 10:34 | 50.03558 | 8.56776 | 354 ft | 118 kts | 250° |
| 2026-04-18 10:34 | 50.03370 | 8.55993 | 351 ft | 38 kts | 249° |
| 2026-04-18 10:35 | 50.03309 | 8.55616 | 343 ft | 36 kts | 268° |
| 2026-04-18 10:35 | 50.03333 | 8.55320 | 343 ft | 24 kts | 280° |
| 2026-04-18 10:35 | 50.03356 | 8.55116 | 342 ft | 12 kts | 281° |
| 2026-04-18 10:35 | 50.03385 | 8.55002 | 345 ft | 12 kts | 294° |
| 2026-04-18 10:36 | 50.03423 | 8.54875 | 349 ft | 8 kts | 300° |
| 2026-04-18 10:36 | 50.03474 | 8.54833 | 347 ft | 13 kts | 340° |
| 2026-04-18 10:36 | 50.03605 | 8.54757 | 350 ft | 23 kts | 339° |
| 2026-04-18 10:36 | 50.03713 | 8.54706 | 355 ft | 13 kts | 4° |
| 2026-04-18 10:37 | 50.03775 | 8.54802 | 351 ft | 14 kts | 70° |
| 2026-04-18 10:37 | 50.03819 | 8.54988 | 353 ft | 20 kts | 70° |
| 2026-04-18 10:37 | 50.03868 | 8.55188 | 354 ft | 20 kts | 70° |
| 2026-04-18 10:37 | 50.03918 | 8.55402 | 352 ft | 21 kts | 69° |
| 2026-04-18 10:38 | 50.03969 | 8.55615 | 356 ft | 21 kts | 70° |
| 2026-04-18 10:38 | 50.04018 | 8.55820 | 353 ft | 18 kts | 69° |
| 2026-04-18 10:38 | 50.04052 | 8.55962 | 354 ft | 11 kts | 69° |
| 2026-04-18 10:38 | 50.04073 | 8.56049 | 358 ft | 7 kts | 69° |
| 2026-04-18 10:39 | 50.04086 | 8.56104 | 357 ft | 4 kts | 70° |
| 2026-04-18 10:39 | 50.04094 | 8.56136 | 352 ft | 2 kts | 70° |
| 2026-04-18 10:39 | 50.04098 | 8.56153 | 357 ft | 1 kts | 70° |
| 2026-04-18 10:39 | 50.04100 | 8.56160 | 355 ft | 0 kts | 70° |
| 2026-04-18 10:40 | 50.04100 | 8.56161 | 355 ft | 0 kts | 70° |
| 2026-04-18 10:40 | 50.04106 | 8.56186 | 355 ft | 14 kts | 70° |
| 2026-04-18 10:40 | 50.04154 | 8.56290 | 353 ft | 9 kts | 360° |
| 2026-04-18 10:40 | 50.04211 | 8.56257 | 356 ft | 11 kts | 339° |
| 2026-04-18 10:41 | 50.04288 | 8.56194 | 357 ft | 12 kts | 300° |
| 2026-04-18 10:41 | 50.04312 | 8.56075 | 359 ft | 13 kts | 324° |
| 2026-04-18 10:41 | 50.04398 | 8.56028 | 361 ft | 13 kts | 352° |
| 2026-04-18 10:41 | 50.04457 | 8.56134 | 361 ft | 15 kts | 70° |
| 2026-04-18 10:42 | 50.04490 | 8.56277 | 357 ft | 15 kts | 71° |
| 2026-04-18 10:42 | 50.04534 | 8.56426 | 359 ft | 15 kts | 43° |
| 2026-04-18 10:42 | 50.04630 | 8.56498 | 359 ft | 14 kts | 24° |
| 2026-04-18 10:42 | 50.04708 | 8.56560 | 361 ft | 12 kts | 41° |
| 2026-04-18 10:43 | 50.04750 | 8.56647 | 358 ft | 10 kts | 54° |
| 2026-04-18 10:43 | 50.04741 | 8.56723 | 359 ft | 6 kts | 114° |
| 2026-04-18 10:43 | 50.04737 | 8.56735 | 361 ft | 1 kts | 114° |
| 2026-04-18 10:43 | 50.04736 | 8.56740 | 360 ft | 0 kts | 115° |